createdAt,value
2023-02-05T00:00:34.208Z,0
2023-02-05T00:01:34.435Z,0
2023-02-05T00:02:34.140Z,0
2023-02-05T00:03:34.446Z,0
2023-02-05T00:04:34.369Z,0
2023-02-05T00:05:35.250Z,0
2023-02-05T00:06:34.363Z,0
2023-02-05T00:07:33.808Z,0
2023-02-05T00:08:33.768Z,0
2023-02-05T00:09:34.009Z,0
2023-02-05T00:10:33.762Z,0
2023-02-05T00:11:33.989Z,0
2023-02-05T00:12:33.718Z,0
2023-02-05T00:13:34.174Z,0
2023-02-05T00:14:33.964Z,0
2023-02-05T00:15:34.799Z,0
2023-02-05T00:16:34.081Z,0
2023-02-05T00:17:33.578Z,0
2023-02-05T00:18:33.826Z,0
2023-02-05T00:19:33.799Z,0
2023-02-05T00:20:34.024Z,0
2023-02-05T00:21:34.169Z,0
2023-02-05T00:22:34.049Z,0
2023-02-05T00:23:33.224Z,0
2023-02-05T00:24:33.426Z,0
2023-02-05T00:25:34.451Z,0
2023-02-05T00:26:33.908Z,0
2023-02-05T00:27:33.880Z,0
2023-02-05T00:28:33.608Z,0
2023-02-05T00:29:33.892Z,0
2023-02-05T00:30:34.028Z,0
2023-02-05T00:31:34.229Z,0
2023-02-05T00:32:33.802Z,0
2023-02-05T00:33:33.250Z,0
2023-02-05T00:34:33.475Z,0
2023-02-05T00:35:33.737Z,0
2023-02-05T00:36:33.182Z,0
2023-02-05T00:37:33.763Z,0
2023-02-05T00:38:33.420Z,0
2023-02-05T00:39:33.374Z,0
2023-02-05T00:40:33.341Z,0
2023-02-05T00:41:33.604Z,0
2023-02-05T00:42:33.591Z,0
2023-02-05T00:43:33.024Z,0
2023-02-05T00:44:33.000Z,0
2023-02-05T00:45:33.691Z,0
2023-02-05T00:46:33.166Z,0
2023-02-05T00:47:33.208Z,0
2023-02-05T00:48:33.443Z,0
2023-02-05T00:49:33.232Z,0
2023-02-05T00:50:32.882Z,0
2023-02-05T00:51:33.114Z,0
2023-02-05T00:52:33.374Z,0
2023-02-05T00:53:33.438Z,0
2023-02-05T00:54:33.041Z,0
2023-02-05T00:55:33.604Z,0
2023-02-05T00:56:33.666Z,0
2023-02-05T00:57:32.974Z,0
2023-02-05T00:58:32.958Z,0
2023-02-05T00:59:32.927Z,0
2023-02-05T01:00:33.160Z,0
2023-02-05T01:01:33.419Z,0
2023-02-05T01:02:33.256Z,0
2023-02-05T01:03:33.094Z,0
2023-02-05T01:04:32.836Z,0
2023-02-05T01:05:33.448Z,0
2023-02-05T01:06:32.281Z,0
2023-02-05T01:07:32.761Z,0
2023-02-05T01:08:32.743Z,0
2023-02-05T01:09:33.102Z,0
2023-02-05T01:10:32.701Z,0
2023-02-05T01:11:32.419Z,0
2023-02-05T01:12:32.646Z,0
2023-02-05T01:13:32.627Z,0
2023-02-05T01:14:32.355Z,0
2023-02-05T01:15:33.437Z,0
2023-02-05T01:16:32.824Z,0
2023-02-05T01:17:32.791Z,0
2023-02-05T01:18:32.266Z,0
2023-02-05T01:19:32.749Z,0
2023-02-05T01:20:32.517Z,0
2023-02-05T01:21:32.733Z,0
2023-02-05T01:22:32.432Z,0
2023-02-05T01:23:32.405Z,0
2023-02-05T01:24:32.386Z,0
2023-02-05T01:25:33.106Z,0
2023-02-05T01:26:32.619Z,0
2023-02-05T01:27:32.567Z,0
2023-02-05T01:28:32.402Z,0
2023-02-05T01:29:34.230Z,0
2023-02-05T01:30:32.048Z,0
2023-02-05T01:31:32.835Z,0
2023-02-05T01:32:32.222Z,0
2023-02-05T01:34:04.265Z,0
2023-02-05T01:34:31.928Z,0
2023-02-05T01:35:32.526Z,0
2023-02-05T01:36:32.429Z,0
2023-02-05T01:37:32.113Z,0
2023-02-05T01:38:32.389Z,0
2023-02-05T01:39:32.321Z,0
2023-02-05T01:40:32.045Z,0
2023-02-05T01:41:32.412Z,0
2023-02-05T01:42:32.008Z,0
2023-02-05T01:43:31.972Z,0
2023-02-05T01:44:31.715Z,0
2023-02-05T01:45:32.722Z,0
2023-02-05T01:46:32.497Z,0
2023-02-05T01:47:32.121Z,0
2023-02-05T01:48:32.137Z,0
2023-02-05T01:49:32.610Z,0
2023-02-05T01:50:32.853Z,0
2023-02-05T01:51:32.835Z,0
2023-02-05T01:52:32.559Z,0
2023-02-05T01:53:32.277Z,0
2023-02-05T01:54:32.511Z,0
2023-02-05T01:55:32.938Z,0
2023-02-05T01:56:32.464Z,0
2023-02-05T01:57:32.785Z,0
2023-02-05T01:58:32.456Z,0
2023-02-05T01:59:32.442Z,0
2023-02-05T02:00:32.378Z,0
2023-02-05T02:01:32.887Z,0
2023-02-05T02:02:32.577Z,0
2023-02-05T02:03:32.305Z,0
2023-02-05T02:04:32.267Z,0
2023-02-05T02:05:32.978Z,0
2023-02-05T02:06:31.981Z,0
2023-02-05T02:07:31.970Z,0
2023-02-05T02:08:32.193Z,0
2023-02-05T02:09:32.663Z,0
2023-02-05T02:10:32.896Z,0
2023-02-05T02:11:32.908Z,0
2023-02-05T02:12:32.865Z,0
2023-02-05T02:13:33.287Z,0
2023-02-05T02:14:32.796Z,0
2023-02-05T02:15:32.738Z,0
2023-02-05T02:16:33.104Z,0
2023-02-05T02:17:32.482Z,0
2023-02-05T02:18:32.788Z,0
2023-02-05T02:19:32.177Z,0
2023-02-05T02:20:32.920Z,0
2023-02-05T02:21:32.951Z,0
2023-02-05T02:22:32.889Z,0
2023-02-05T02:23:32.619Z,0
2023-02-05T02:24:32.569Z,0
2023-02-05T02:25:32.357Z,0
2023-02-05T02:26:35.661Z,0
2023-02-05T02:27:32.514Z,0
2023-02-05T02:28:32.242Z,0
2023-02-05T02:29:32.822Z,0
2023-02-05T02:30:33.019Z,0
2023-02-05T02:31:32.956Z,0
2023-02-05T02:32:32.685Z,0
2023-02-05T02:33:32.384Z,0
2023-02-05T02:34:32.360Z,0
2023-02-05T02:35:32.883Z,0
2023-02-05T02:36:32.364Z,0
2023-02-05T02:37:32.569Z,0
2023-02-05T02:38:32.277Z,0
2023-02-05T02:39:32.253Z,0
2023-02-05T02:40:32.225Z,0
2023-02-05T02:41:32.184Z,0
2023-02-05T02:42:32.196Z,0
2023-02-05T02:43:32.177Z,0
2023-02-05T02:44:32.379Z,0
2023-02-05T02:45:32.742Z,0
2023-02-05T02:46:32.249Z,0
2023-02-05T02:47:32.358Z,0
2023-02-05T02:48:32.317Z,0
2023-02-05T02:49:31.765Z,0
2023-02-05T02:50:32.270Z,0
2023-02-05T02:51:32.020Z,0
2023-02-05T02:52:31.717Z,0
2023-02-05T02:53:31.686Z,0
2023-02-05T02:54:32.228Z,0
2023-02-05T02:55:32.445Z,0
2023-02-05T02:56:31.859Z,0
2023-02-05T02:57:32.086Z,0
2023-02-05T02:58:32.081Z,0
2023-02-05T02:59:31.545Z,0
2023-02-05T03:00:32.004Z,0
2023-02-05T03:01:32.189Z,0
2023-02-05T03:02:31.994Z,0
2023-02-05T03:03:32.164Z,0
2023-02-05T03:04:31.730Z,0
2023-02-05T03:05:32.645Z,0
2023-02-05T03:06:31.668Z,0
2023-02-05T03:07:31.405Z,0
2023-02-05T03:08:31.598Z,0
2023-02-05T03:09:31.586Z,0
2023-02-05T03:10:31.826Z,0
2023-02-05T03:11:31.544Z,0
2023-02-05T03:12:31.896Z,0
2023-02-05T03:13:31.502Z,0
2023-02-05T03:14:31.249Z,0
2023-02-05T03:15:32.073Z,0
2023-02-05T03:16:31.994Z,0
2023-02-05T03:17:31.796Z,0
2023-02-05T03:18:31.151Z,0
2023-02-05T03:19:31.363Z,0
2023-02-05T03:20:31.346Z,0
2023-02-05T03:21:31.564Z,0
2023-02-05T03:22:31.564Z,0
2023-02-05T03:23:30.765Z,0
2023-02-05T03:24:31.003Z,0
2023-02-05T03:25:31.639Z,0
2023-02-05T03:26:31.467Z,0
2023-02-05T03:27:31.449Z,0
2023-02-05T03:28:30.925Z,0
2023-02-05T03:29:31.388Z,0
2023-02-05T03:30:31.294Z,0
2023-02-05T03:31:31.546Z,0
2023-02-05T03:32:30.840Z,0
2023-02-05T03:49:47.045Z,0
2023-02-05T03:50:46.911Z,0
2023-02-05T03:51:46.888Z,0
2023-02-05T03:52:46.604Z,0
2023-02-05T03:53:47.368Z,0
2023-02-05T03:54:46.845Z,0
2023-02-05T03:55:46.835Z,0
2023-02-05T03:56:47.308Z,0
2023-02-05T03:57:47.027Z,0
2023-02-05T03:58:46.763Z,0
2023-02-05T03:59:47.005Z,0
2023-02-05T04:00:47.338Z,0
2023-02-05T04:01:47.172Z,0
2023-02-05T04:02:46.930Z,0
2023-02-05T04:03:46.915Z,0
2023-02-05T04:04:46.869Z,0
2023-02-05T04:05:47.245Z,0
2023-02-05T04:06:46.552Z,0
2023-02-05T04:07:47.096Z,0
2023-02-05T04:08:46.642Z,0
2023-02-05T04:09:46.515Z,0
2023-02-05T04:10:46.715Z,0
2023-02-05T04:11:46.456Z,0
2023-02-05T04:12:46.690Z,0
2023-02-05T04:13:46.927Z,0
2023-02-05T04:14:46.662Z,0
2023-02-05T04:15:46.371Z,0
2023-02-05T04:16:46.752Z,0
2023-02-05T04:17:46.575Z,0
2023-02-05T04:18:46.291Z,0
2023-02-05T04:19:46.780Z,0
2023-02-05T04:20:46.754Z,0
2023-02-05T04:21:46.858Z,0
2023-02-05T04:22:46.447Z,0
2023-02-05T04:23:47.137Z,0
2023-02-05T04:24:46.684Z,0
2023-02-05T04:25:46.157Z,0
2023-02-05T04:26:46.382Z,0
2023-02-05T04:27:46.752Z,0
2023-02-05T04:28:46.320Z,0
2023-02-05T04:29:46.576Z,0
2023-02-05T04:30:46.551Z,0
2023-02-05T04:31:46.730Z,0
2023-02-05T04:32:45.989Z,0
2023-02-05T04:33:46.238Z,0
2023-02-05T04:34:45.948Z,0
2023-02-05T04:35:46.467Z,0
2023-02-05T04:36:46.177Z,0
2023-02-05T04:37:46.488Z,0
2023-02-05T04:38:45.855Z,0
2023-02-05T04:39:45.835Z,0
2023-02-05T04:40:46.066Z,0
2023-02-05T04:41:46.303Z,0
2023-02-05T04:42:45.764Z,0
2023-02-05T04:43:46.025Z,0
2023-02-05T04:44:45.987Z,0
2023-02-05T04:45:46.419Z,0
2023-02-05T04:46:45.705Z,0
2023-02-05T04:47:46.233Z,0
2023-02-05T04:48:45.904Z,0
2023-02-05T04:49:45.870Z,0
2023-02-05T04:50:45.588Z,0
2023-02-05T04:51:46.182Z,0
2023-02-05T04:52:46.152Z,0
2023-02-05T04:53:46.155Z,0
2023-02-05T04:54:45.578Z,0
2023-02-05T04:55:46.026Z,0
2023-02-05T04:56:45.976Z,0
2023-02-05T04:57:45.189Z,0
2023-02-05T04:58:45.679Z,0
2023-02-05T04:59:45.646Z,0
2023-02-05T05:00:45.631Z,0
2023-02-05T05:01:45.610Z,0
2023-02-05T05:02:45.835Z,0
2023-02-05T05:03:45.808Z,0
2023-02-05T05:04:47.739Z,0
2023-02-05T05:05:45.783Z,0
2023-02-05T05:06:45.809Z,0
2023-02-05T05:07:45.755Z,0
2023-02-05T05:08:45.516Z,0
2023-02-05T05:09:45.822Z,0
2023-02-05T05:10:45.670Z,0
2023-02-05T05:11:46.244Z,0
2023-02-05T05:12:45.973Z,0
2023-02-05T05:13:46.192Z,0
2023-02-05T05:14:46.182Z,0
2023-02-05T05:15:46.198Z,0
2023-02-05T05:16:46.118Z,0
2023-02-05T05:17:45.850Z,0
2023-02-05T05:18:45.812Z,0
2023-02-05T05:19:46.047Z,0
2023-02-05T05:20:47.561Z,0
2023-02-05T05:21:46.020Z,0
2023-02-05T05:22:45.486Z,0
2023-02-05T05:23:45.972Z,0
2023-02-05T05:24:45.696Z,0
2023-02-05T05:25:46.026Z,0
2023-02-05T05:26:45.651Z,0
2023-02-05T05:27:45.588Z,0
2023-02-05T05:28:45.681Z,0
2023-02-05T05:29:45.566Z,0
2023-02-05T05:30:45.938Z,0
2023-02-05T05:31:45.166Z,0
2023-02-05T05:32:45.519Z,0
2023-02-05T05:33:45.815Z,0
2023-02-05T05:34:45.725Z,0
2023-02-05T05:35:45.186Z,0
2023-02-05T05:36:45.177Z,0
2023-02-05T05:37:45.428Z,0
2023-02-05T05:38:45.394Z,0
2023-02-05T05:39:45.870Z,0
2023-02-05T05:40:46.333Z,0
2023-02-05T05:41:46.432Z,0
2023-02-05T05:42:46.049Z,0
2023-02-05T05:43:46.296Z,0
2023-02-05T05:44:46.254Z,0
2023-02-05T05:45:46.154Z,0
2023-02-05T05:46:46.213Z,0
2023-02-05T05:47:45.932Z,0
2023-02-05T05:48:46.180Z,0
2023-02-05T05:49:46.176Z,0
2023-02-05T05:50:46.165Z,0
2023-02-05T05:51:46.134Z,0
2023-02-05T05:52:45.573Z,0
2023-02-05T05:53:45.800Z,0
2023-02-05T05:54:46.045Z,0
2023-02-05T05:55:45.759Z,0
2023-02-05T05:56:45.990Z,0
2023-02-05T05:57:46.082Z,0
2023-02-05T05:58:45.722Z,0
2023-02-05T05:59:45.695Z,0
2023-02-05T06:00:45.690Z,0
2023-02-05T06:01:45.901Z,0
2023-02-05T06:02:46.184Z,0
2023-02-05T06:03:45.576Z,0
2023-02-05T06:04:45.742Z,0
2023-02-05T06:05:45.306Z,0
2023-02-05T06:06:45.768Z,0
2023-02-05T06:07:45.736Z,0
2023-02-05T06:08:45.737Z,4
2023-02-05T06:09:45.702Z,0
2023-02-05T06:10:45.690Z,4
2023-02-05T06:11:45.397Z,0
2023-02-05T06:12:45.624Z,4
2023-02-05T06:13:45.881Z,4
2023-02-05T06:14:45.602Z,8
2023-02-05T06:15:45.959Z,8
2023-02-05T06:16:46.004Z,8
2023-02-05T06:17:45.971Z,8
2023-02-05T06:18:45.949Z,12
2023-02-05T06:19:45.714Z,12
2023-02-05T06:20:45.628Z,12
2023-02-05T06:21:45.387Z,12
2023-02-05T06:22:45.594Z,20
2023-02-05T06:23:45.596Z,24
2023-02-05T06:24:45.799Z,24
2023-02-05T06:25:45.522Z,32
2023-02-05T06:26:45.768Z,36
2023-02-05T06:27:45.080Z,44
2023-02-05T06:28:45.745Z,52
2023-02-05T06:29:46.059Z,60
2023-02-05T06:30:45.414Z,72
2023-02-05T06:31:46.409Z,84
2023-02-05T06:32:45.188Z,96
2023-02-05T06:33:45.347Z,112
2023-02-05T06:34:45.592Z,128
2023-02-05T06:35:45.587Z,148
2023-02-05T06:36:45.038Z,164
2023-02-05T06:37:54.338Z,192
2023-02-05T06:38:45.237Z,212
2023-02-05T06:39:45.220Z,236
2023-02-05T06:40:45.542Z,264
2023-02-05T06:41:45.173Z,288
2023-02-05T06:42:45.415Z,312
2023-02-05T06:43:45.388Z,336
2023-02-05T06:44:44.859Z,352
2023-02-05T06:45:45.441Z,364
2023-02-05T06:46:45.524Z,380
2023-02-05T06:47:45.311Z,392
2023-02-05T06:48:45.267Z,408
2023-02-05T06:49:44.984Z,416
2023-02-05T06:50:45.258Z,424
2023-02-05T06:51:44.744Z,432
2023-02-05T06:52:45.181Z,440
2023-02-05T06:53:45.228Z,452
2023-02-05T06:54:44.632Z,468
2023-02-05T06:55:44.864Z,488
2023-02-05T06:56:44.836Z,504
2023-02-05T06:57:44.854Z,520
2023-02-05T06:58:44.836Z,532
2023-02-05T06:59:45.018Z,552
2023-02-05T07:00:44.755Z,568
2023-02-05T07:01:45.425Z,588
2023-02-05T07:02:44.671Z,604
2023-02-05T07:03:44.963Z,628
2023-02-05T07:04:44.660Z,648
2023-02-05T07:05:44.719Z,672
2023-02-05T07:06:44.886Z,704
2023-02-05T07:07:44.613Z,740
2023-02-05T07:08:44.331Z,772
2023-02-05T07:09:44.565Z,812
2023-02-05T07:10:44.795Z,852
2023-02-05T07:11:44.775Z,896
2023-02-05T07:12:44.438Z,940
2023-02-05T07:13:44.474Z,980
2023-02-05T07:14:44.441Z,1016
2023-02-05T07:15:45.094Z,1048
2023-02-05T07:16:44.684Z,1076
2023-02-05T07:17:44.964Z,1108
2023-02-05T07:18:44.606Z,1132
2023-02-05T07:19:44.430Z,1156
2023-02-05T07:20:44.598Z,1180
2023-02-05T07:21:43.803Z,1200
2023-02-05T07:22:44.308Z,1220
2023-02-05T07:23:44.511Z,1236
2023-02-05T07:24:43.986Z,1252
2023-02-05T07:25:44.213Z,1268
2023-02-05T07:26:44.182Z,1288
2023-02-05T07:27:44.008Z,1308
2023-02-05T07:28:44.440Z,1324
2023-02-05T07:29:44.381Z,1336
2023-02-05T07:30:44.232Z,1344
2023-02-05T07:31:44.717Z,1348
2023-02-05T07:32:43.805Z,1340
2023-02-05T07:33:44.497Z,1320
2023-02-05T07:34:44.036Z,1308
2023-02-05T07:35:44.359Z,1304
2023-02-05T07:36:43.704Z,1308
2023-02-05T07:37:43.947Z,1316
2023-02-05T07:38:43.920Z,1332
2023-02-05T07:39:43.899Z,1340
2023-02-05T07:40:44.143Z,1344
2023-02-05T07:41:44.121Z,1340
2023-02-05T07:42:44.073Z,1352
2023-02-05T07:43:44.095Z,1376
2023-02-05T07:44:44.052Z,1396
2023-02-05T07:45:44.117Z,1416
2023-02-05T07:46:44.015Z,1428
2023-02-05T07:47:44.079Z,1428
2023-02-05T07:48:43.689Z,1420
2023-02-05T07:49:44.071Z,1416
2023-02-05T07:50:43.926Z,1404
2023-02-05T07:51:43.617Z,1400
2023-02-05T07:52:43.610Z,1392
2023-02-05T07:53:43.589Z,1388
2023-02-05T07:54:43.591Z,1392
2023-02-05T07:55:44.188Z,1400
2023-02-05T07:56:43.511Z,1408
2023-02-05T07:57:43.242Z,1408
2023-02-05T07:58:43.480Z,1412
2023-02-05T07:59:43.475Z,1416
2023-02-05T08:00:43.800Z,1428
2023-02-05T08:01:43.680Z,1440
2023-02-05T08:02:43.657Z,1444
2023-02-05T08:03:43.141Z,1456
2023-02-05T08:04:43.846Z,1476
2023-02-05T08:05:44.046Z,1512
2023-02-05T08:06:43.044Z,1556
2023-02-05T08:07:43.279Z,1616
2023-02-05T08:08:42.995Z,1720
2023-02-05T08:09:43.480Z,1856
2023-02-05T08:10:43.229Z,2024
2023-02-05T08:11:43.471Z,2228
2023-02-05T08:12:43.427Z,2492
2023-02-05T08:13:42.888Z,2720
2023-02-05T08:14:43.379Z,2876
2023-02-05T08:15:43.068Z,2976
2023-02-05T08:16:42.993Z,3064
2023-02-05T08:17:43.134Z,3192
2023-02-05T08:18:43.340Z,3328
2023-02-05T08:19:43.311Z,3460
2023-02-05T08:20:43.565Z,3600
2023-02-05T08:21:43.634Z,3716
2023-02-05T08:22:43.263Z,3824
2023-02-05T08:23:43.255Z,3924
2023-02-05T08:24:43.483Z,4020
2023-02-05T08:25:43.798Z,4136
2023-02-05T08:26:43.418Z,4308
2023-02-05T08:27:42.971Z,4468
2023-02-05T08:28:43.400Z,4608
2023-02-05T08:29:42.854Z,4712
2023-02-05T08:30:43.484Z,4832
2023-02-05T08:31:43.709Z,4988
2023-02-05T08:32:43.047Z,5136
2023-02-05T08:33:43.057Z,5268
2023-02-05T08:34:42.766Z,5396
2023-02-05T08:35:42.969Z,5504
2023-02-05T08:36:43.219Z,5568
2023-02-05T08:37:43.296Z,5656
2023-02-05T08:38:42.917Z,5756
2023-02-05T08:39:42.910Z,5824
2023-02-05T08:40:43.128Z,5888
2023-02-05T08:41:43.104Z,5912
2023-02-05T08:42:43.091Z,5888
2023-02-05T08:43:43.092Z,5908
2023-02-05T08:44:43.062Z,5928
2023-02-05T08:45:43.509Z,5964
2023-02-05T08:46:56.239Z,5928
2023-02-05T08:47:43.012Z,5868
2023-02-05T08:48:42.969Z,5776
2023-02-05T08:49:44.993Z,5672
2023-02-05T08:50:42.925Z,5564
2023-02-05T08:51:42.912Z,5504
2023-02-05T08:52:42.652Z,5452
2023-02-05T08:53:43.014Z,5392
2023-02-05T08:54:42.588Z,5332
2023-02-05T08:55:42.892Z,5284
2023-02-05T08:56:42.542Z,5248
2023-02-05T08:57:42.810Z,5216
2023-02-05T08:58:42.508Z,5164
2023-02-05T08:59:42.734Z,5112
2023-02-05T09:00:42.521Z,5080
2023-02-05T09:01:42.697Z,5044
2023-02-05T09:02:42.686Z,5016
2023-02-05T09:03:42.417Z,4984
2023-02-05T09:04:42.388Z,4952
2023-02-05T09:05:43.027Z,4940
2023-02-05T09:06:42.364Z,4928
2023-02-05T09:07:42.382Z,4904
2023-02-05T09:08:42.597Z,4892
2023-02-05T09:09:42.642Z,4868
2023-02-05T09:10:42.369Z,4848
2023-02-05T09:11:42.015Z,4836
2023-02-05T09:12:42.253Z,4812
2023-02-05T09:13:42.221Z,4808
2023-02-05T09:14:42.201Z,4836
2023-02-05T09:15:42.636Z,4864
2023-02-05T09:16:42.576Z,4904
2023-02-05T09:17:41.888Z,4936
2023-02-05T09:18:42.363Z,4980
2023-02-05T09:19:42.348Z,5016
2023-02-05T09:20:42.072Z,5056
2023-02-05T09:21:42.065Z,5084
2023-02-05T09:22:42.042Z,5124
2023-02-05T09:23:42.265Z,5164
2023-02-05T09:24:41.991Z,5200
2023-02-05T09:25:42.790Z,5224
2023-02-05T09:26:41.971Z,5224
2023-02-05T09:27:42.240Z,5204
2023-02-05T09:28:42.168Z,5184
2023-02-05T09:29:41.635Z,5140
2023-02-05T09:30:42.577Z,5096
2023-02-05T09:31:42.636Z,5028
2023-02-05T09:32:41.581Z,4968
2023-02-05T09:33:41.826Z,4912
2023-02-05T09:34:42.079Z,4892
2023-02-05T09:35:42.126Z,4888
2023-02-05T09:36:41.515Z,4896
2023-02-05T09:37:41.751Z,4904
2023-02-05T09:38:41.732Z,4924
2023-02-05T09:40:30.150Z,4968
2023-02-05T09:40:41.974Z,4968
2023-02-05T09:41:42.157Z,4988
2023-02-05T09:42:42.023Z,5016
2023-02-05T09:43:41.896Z,5032
2023-02-05T09:44:41.348Z,5036
2023-02-05T09:45:45.244Z,5068
2023-02-05T09:46:41.557Z,5076
2023-02-05T09:47:41.792Z,5092
2023-02-05T09:48:41.773Z,5116
2023-02-05T09:49:41.777Z,5144
2023-02-05T09:50:41.753Z,5188
2023-02-05T09:51:41.754Z,5240
2023-02-05T09:52:41.460Z,5324
2023-02-05T09:53:41.720Z,5416
2023-02-05T09:54:41.404Z,5504
2023-02-05T09:55:42.143Z,5600
2023-02-05T09:56:44.939Z,5676
2023-02-05T09:57:41.697Z,5756
2023-02-05T09:58:41.323Z,5828
2023-02-05T09:59:41.556Z,5908
2023-02-05T10:00:41.289Z,5988
2023-02-05T10:01:41.328Z,6056
2023-02-05T10:02:41.548Z,6116
2023-02-05T10:03:41.231Z,6164
2023-02-05T10:04:41.697Z,6204
2023-02-05T10:05:41.596Z,6216
2023-02-05T10:06:41.182Z,6204
2023-02-05T10:07:41.176Z,6188
2023-02-05T10:08:43.242Z,6180
2023-02-05T10:09:41.440Z,6172
2023-02-05T10:10:41.100Z,6168
2023-02-05T10:11:41.334Z,6176
2023-02-05T10:12:41.362Z,6184
2023-02-05T10:13:41.413Z,6196
2023-02-05T10:14:41.306Z,6208
2023-02-05T10:15:42.029Z,6220
2023-02-05T10:16:40.880Z,6228
2023-02-05T10:17:40.745Z,6232
2023-02-05T10:18:41.244Z,6228
2023-02-05T10:19:41.204Z,6228
2023-02-05T10:20:41.264Z,6228
2023-02-05T10:21:40.664Z,6232
2023-02-05T10:22:40.919Z,6256
2023-02-05T10:23:41.138Z,6264
2023-02-05T10:24:40.868Z,6268
2023-02-05T10:25:42.107Z,6288
2023-02-05T10:26:41.082Z,6304
2023-02-05T10:27:40.802Z,6320
2023-02-05T10:28:40.839Z,6340
2023-02-05T10:29:41.096Z,6352
2023-02-05T10:30:41.144Z,6380
2023-02-05T10:31:43.225Z,6400
2023-02-05T10:32:40.974Z,6424
2023-02-05T10:33:40.688Z,6444
2023-02-05T10:34:40.684Z,6464
2023-02-05T10:35:41.457Z,6472
2023-02-05T10:36:40.638Z,6488
2023-02-05T10:37:40.630Z,6500
2023-02-05T10:38:40.614Z,6516
2023-02-05T10:39:40.862Z,6536
2023-02-05T10:40:41.447Z,6560
2023-02-05T10:41:40.822Z,6580
2023-02-05T10:42:40.769Z,6612
2023-02-05T10:43:40.249Z,6640
2023-02-05T10:44:40.556Z,6668
2023-02-05T10:45:41.847Z,6692
2023-02-05T10:46:41.047Z,6720
2023-02-05T10:47:40.439Z,6744
2023-02-05T10:48:40.408Z,6760
2023-02-05T10:49:40.133Z,6780
2023-02-05T10:50:41.544Z,6800
2023-02-05T10:51:40.344Z,6816
2023-02-05T10:52:40.345Z,6832
2023-02-05T10:53:40.448Z,6844
2023-02-05T10:54:40.442Z,6848
2023-02-05T10:55:41.374Z,6864
2023-02-05T10:56:40.655Z,6880
2023-02-05T10:57:40.686Z,6884
2023-02-05T10:58:40.636Z,6892
2023-02-05T10:59:40.582Z,6912
2023-02-05T11:00:41.395Z,6928
2023-02-05T11:01:40.791Z,6936
2023-02-05T11:02:40.244Z,6948
2023-02-05T11:03:40.505Z,6960
2023-02-05T11:04:42.182Z,6968
2023-02-05T11:05:40.248Z,6972
2023-02-05T11:06:40.186Z,6968
2023-02-05T11:07:40.189Z,6956
2023-02-05T11:08:40.175Z,6948
2023-02-05T11:09:40.172Z,6940
2023-02-05T11:10:41.467Z,6944
2023-02-05T11:11:41.989Z,6944
2023-02-05T11:12:39.827Z,6940
2023-02-05T11:13:39.818Z,6944
2023-02-05T11:14:40.074Z,6944
2023-02-05T11:15:40.335Z,6940
2023-02-05T11:16:40.053Z,6936
2023-02-05T11:17:40.474Z,6932
2023-02-05T11:18:40.234Z,6936
2023-02-05T11:19:40.196Z,6912
2023-02-05T11:20:40.271Z,6884
2023-02-05T11:21:39.926Z,6844
2023-02-05T11:22:39.907Z,6808
2023-02-05T11:23:40.189Z,6760
2023-02-05T11:24:40.106Z,6720
2023-02-05T11:25:39.870Z,6708
2023-02-05T11:26:39.580Z,6696
2023-02-05T11:27:40.181Z,6692
2023-02-05T11:28:39.635Z,6692
2023-02-05T11:29:39.784Z,6724
2023-02-05T11:30:59.296Z,6676
2023-02-05T11:31:40.192Z,6644
2023-02-05T11:32:39.929Z,6616
2023-02-05T11:33:40.072Z,6620
2023-02-05T11:34:39.941Z,6592
2023-02-05T11:35:40.069Z,6556
2023-02-05T11:36:39.806Z,6496
2023-02-05T11:37:39.763Z,6484
2023-02-05T11:38:42.410Z,6492
2023-02-05T11:39:39.484Z,6524
2023-02-05T11:40:40.591Z,6588
2023-02-05T11:41:39.692Z,6788
2023-02-05T11:42:39.949Z,6620
2023-02-05T11:43:39.938Z,6592
2023-02-05T11:44:39.388Z,6588
2023-02-05T11:45:39.662Z,6596
2023-02-05T11:46:40.134Z,6640
2023-02-05T11:47:39.333Z,6576
2023-02-05T11:48:39.646Z,6588
2023-02-05T11:49:39.871Z,6592
2023-02-05T11:50:40.059Z,6608
2023-02-05T11:51:39.587Z,6628
2023-02-05T11:52:39.823Z,6660
2023-02-05T11:53:39.507Z,6652
2023-02-05T11:54:39.795Z,6608
2023-02-05T11:55:39.441Z,6536
2023-02-05T11:56:39.424Z,6504
2023-02-05T11:57:39.422Z,6464
2023-02-05T11:58:44.195Z,6456
2023-02-05T11:59:39.125Z,6460
2023-02-05T12:00:40.230Z,6488
2023-02-05T12:01:39.900Z,6516
2023-02-05T12:02:39.595Z,6564
2023-02-05T12:03:39.061Z,6564
2023-02-05T12:04:39.624Z,6556
2023-02-05T12:05:39.331Z,6540
2023-02-05T12:06:39.248Z,6520
2023-02-05T12:07:38.967Z,6480
2023-02-05T12:08:39.230Z,6440
2023-02-05T12:09:39.195Z,6400
2023-02-05T12:10:39.901Z,6364
2023-02-05T12:11:38.897Z,6312
2023-02-05T12:12:39.136Z,6268
2023-02-05T12:13:39.375Z,6244
2023-02-05T12:14:39.408Z,6208
2023-02-05T12:15:39.105Z,6176
2023-02-05T12:16:39.634Z,6148
2023-02-05T12:17:39.061Z,6132
2023-02-05T12:18:38.792Z,6104
2023-02-05T12:19:39.020Z,6084
2023-02-05T12:20:39.510Z,6060
2023-02-05T12:21:39.151Z,6040
2023-02-05T12:22:38.962Z,6012
2023-02-05T12:23:39.203Z,5996
2023-02-05T12:24:38.924Z,5960
2023-02-05T12:25:41.216Z,5932
2023-02-05T12:26:38.943Z,5904
2023-02-05T12:27:38.892Z,5856
2023-02-05T12:28:38.637Z,5812
2023-02-05T12:29:38.871Z,5784
2023-02-05T12:30:39.195Z,5764
2023-02-05T12:31:39.098Z,5756
2023-02-05T12:32:38.774Z,5748
2023-02-05T12:33:38.757Z,5768
2023-02-05T12:34:38.475Z,5788
2023-02-05T12:35:39.748Z,5808
2023-02-05T12:36:38.785Z,5812
2023-02-05T12:37:38.998Z,5816
2023-02-05T12:38:39.857Z,5804
2023-02-05T12:39:38.906Z,5764
2023-02-05T12:40:38.644Z,5760
2023-02-05T12:41:38.639Z,5732
2023-02-05T12:42:38.609Z,5736
2023-02-05T12:43:38.845Z,5728
2023-02-05T12:44:39.518Z,5708
2023-02-05T12:45:40.143Z,5692
2023-02-05T12:46:38.797Z,5668
2023-02-05T12:47:38.767Z,5656
2023-02-05T12:48:38.521Z,5616
2023-02-05T12:49:40.353Z,5564
2023-02-05T12:50:37.931Z,5540
2023-02-05T12:51:38.681Z,5496
2023-02-05T12:52:38.458Z,5464
2023-02-05T12:53:41.321Z,5440
2023-02-05T12:54:38.120Z,5420
2023-02-05T12:55:39.404Z,5416
2023-02-05T12:56:38.608Z,5404
2023-02-05T12:57:39.772Z,5408
2023-02-05T12:58:38.390Z,5396
2023-02-05T12:59:37.782Z,5388
2023-02-05T13:00:39.079Z,5392
2023-02-05T13:01:38.314Z,5400
2023-02-05T13:02:37.801Z,5412
2023-02-05T13:03:38.245Z,5416
2023-02-05T13:04:38.732Z,5416
2023-02-05T13:05:38.724Z,5420
2023-02-05T13:06:38.164Z,5428
2023-02-05T13:07:38.158Z,5420
2023-02-05T13:08:37.925Z,5416
2023-02-05T13:09:38.414Z,5416
2023-02-05T13:10:38.235Z,5416
2023-02-05T13:11:38.069Z,5416
2023-02-05T13:12:38.314Z,5408
2023-02-05T13:13:38.304Z,5388
2023-02-05T13:14:38.021Z,5356
2023-02-05T13:15:38.804Z,5320
2023-02-05T13:16:38.375Z,5276
2023-02-05T13:17:38.185Z,5248
2023-02-05T13:18:38.671Z,5220
2023-02-05T13:19:38.671Z,5184
2023-02-05T13:20:38.369Z,5152
2023-02-05T13:21:38.624Z,5112
2023-02-05T13:22:38.091Z,5072
2023-02-05T13:23:38.608Z,5036
2023-02-05T13:24:38.643Z,5000
2023-02-05T13:25:46.278Z,4972
2023-02-05T13:26:38.321Z,4940
2023-02-05T13:27:38.250Z,4912
2023-02-05T13:28:37.973Z,4884
2023-02-05T13:29:37.956Z,4856
2023-02-05T13:30:39.949Z,4828
2023-02-05T13:31:38.549Z,4796
2023-02-05T13:32:38.417Z,4760
2023-02-05T13:33:38.400Z,4720
2023-02-05T13:34:38.138Z,4680
2023-02-05T13:35:39.192Z,4648
2023-02-05T13:36:37.844Z,4612
2023-02-05T13:37:38.332Z,4572
2023-02-05T13:38:38.076Z,4532
2023-02-05T13:39:41.699Z,4488
2023-02-05T13:40:39.021Z,4452
2023-02-05T13:41:38.442Z,4408
2023-02-05T13:42:37.973Z,4360
2023-02-05T13:43:38.223Z,4308
2023-02-05T13:44:37.945Z,4264
2023-02-05T13:45:39.022Z,4212
2023-02-05T13:46:37.900Z,4172
2023-02-05T13:47:38.157Z,4124
2023-02-05T13:48:38.155Z,4076
2023-02-05T13:49:37.848Z,4028
2023-02-05T13:50:38.094Z,3980
2023-02-05T13:51:37.800Z,3928
2023-02-05T13:52:38.103Z,3884
2023-02-05T13:53:37.536Z,3844
2023-02-05T13:54:38.018Z,3804
2023-02-05T13:55:38.658Z,3764
2023-02-05T13:56:37.750Z,3724
2023-02-05T13:57:38.054Z,3688
2023-02-05T13:58:37.671Z,3656
2023-02-05T13:59:37.674Z,3624
2023-02-05T14:00:37.944Z,3592
2023-02-05T14:01:38.522Z,3560
2023-02-05T14:02:37.862Z,3528
2023-02-05T14:03:38.348Z,3500
2023-02-05T14:04:37.590Z,3472
2023-02-05T14:05:38.703Z,3436
2023-02-05T14:06:37.294Z,3396
2023-02-05T14:07:37.524Z,3352
2023-02-05T14:08:37.502Z,3308
2023-02-05T14:09:37.227Z,3264
2023-02-05T14:10:37.703Z,3228
2023-02-05T14:11:37.752Z,3184
2023-02-05T14:12:37.736Z,3140
2023-02-05T14:13:37.715Z,3100